sensor_id;sensor_type;location;lat;lon;timestamp;P1;durP1;ratioP1;P2;durP2;ratioP2
55063;SDS011;40963;52.168;21.296;2022-08-21T00:01:25;10.57;;;4.97;;
55063;SDS011;40963;52.168;21.296;2022-08-21T00:03:53;5.65;;;4.65;;
55063;SDS011;40963;52.168;21.296;2022-08-21T00:06:19;5.97;;;4.80;;
55063;SDS011;40963;52.168;21.296;2022-08-21T00:08:45;9.90;;;4.15;;
55063;SDS011;40963;52.168;21.296;2022-08-21T00:11:11;7.57;;;4.25;;
55063;SDS011;40963;52.168;21.296;2022-08-21T00:13:37;5.57;;;4.53;;
55063;SDS011;40963;52.168;21.296;2022-08-21T00:16:03;7.38;;;4.40;;
55063;SDS011;40963;52.168;21.296;2022-08-21T00:18:29;6.35;;;4.85;;
55063;SDS011;40963;52.168;21.296;2022-08-21T00:20:58;5.53;;;4.40;;
55063;SDS011;40963;52.168;21.296;2022-08-21T00:23:24;8.98;;;4.38;;
55063;SDS011;40963;52.168;21.296;2022-08-21T00:25:50;8.27;;;4.70;;
55063;SDS011;40963;52.168;21.296;2022-08-21T00:28:16;9.35;;;4.57;;
55063;SDS011;40963;52.168;21.296;2022-08-21T00:30:42;6.43;;;4.25;;
55063;SDS011;40963;52.168;21.296;2022-08-21T00:33:09;5.03;;;4.50;;
55063;SDS011;40963;52.168;21.296;2022-08-21T00:35:37;6.80;;;5.07;;
55063;SDS011;40963;52.168;21.296;2022-08-21T00:38:06;14.93;;;4.90;;
55063;SDS011;40963;52.168;21.296;2022-08-21T00:40:41;7.57;;;4.95;;
55063;SDS011;40963;52.168;21.296;2022-08-21T00:43:14;5.25;;;4.35;;
55063;SDS011;40963;52.168;21.296;2022-08-21T00:45:41;11.10;;;4.72;;
55063;SDS011;40963;52.168;21.296;2022-08-21T00:48:07;12.38;;;5.38;;
55063;SDS011;40963;52.168;21.296;2022-08-21T00:50:33;6.90;;;5.00;;
55063;SDS011;40963;52.168;21.296;2022-08-21T00:53:03;10.00;;;4.50;;
55063;SDS011;40963;52.168;21.296;2022-08-21T00:55:31;11.02;;;4.57;;
55063;SDS011;40963;52.168;21.296;2022-08-21T00:57:59;14.38;;;5.15;;
55063;SDS011;40963;52.168;21.296;2022-08-21T01:00:31;12.60;;;4.90;;
55063;SDS011;40963;52.168;21.296;2022-08-21T01:03:05;6.18;;;4.72;;
55063;SDS011;40963;52.168;21.296;2022-08-21T01:05:33;5.10;;;4.55;;
55063;SDS011;40963;52.168;21.296;2022-08-21T01:07:59;8.23;;;5.03;;
55063;SDS011;40963;52.168;21.296;2022-08-21T01:10:25;7.38;;;4.82;;
55063;SDS011;40963;52.168;21.296;2022-08-21T01:12:51;10.10;;;5.05;;
55063;SDS011;40963;52.168;21.296;2022-08-21T01:15:20;7.50;;;5.15;;
55063;SDS011;40963;52.168;21.296;2022-08-21T01:17:49;6.63;;;4.70;;
55063;SDS011;40963;52.168;21.296;2022-08-21T01:20:16;7.15;;;4.82;;
55063;SDS011;40963;52.168;21.296;2022-08-21T01:22:42;6.50;;;5.00;;
55063;SDS011;40963;52.168;21.296;2022-08-21T01:25:08;5.40;;;4.80;;
55063;SDS011;40963;52.168;21.296;2022-08-21T01:27:35;5.25;;;4.40;;
55063;SDS011;40963;52.168;21.296;2022-08-21T01:30:07;5.90;;;4.47;;
55063;SDS011;40963;52.168;21.296;2022-08-21T01:32:33;7.53;;;5.05;;
55063;SDS011;40963;52.168;21.296;2022-08-21T01:34:59;8.98;;;4.80;;
55063;SDS011;40963;52.168;21.296;2022-08-21T01:37:25;9.07;;;5.05;;
55063;SDS011;40963;52.168;21.296;2022-08-21T01:39:50;7.07;;;4.90;;
55063;SDS011;40963;52.168;21.296;2022-08-21T01:42:17;13.65;;;5.13;;
55063;SDS011;40963;52.168;21.296;2022-08-21T01:44:42;7.22;;;5.47;;
55063;SDS011;40963;52.168;21.296;2022-08-21T01:47:09;10.65;;;5.55;;
55063;SDS011;40963;52.168;21.296;2022-08-21T01:49:37;10.63;;;5.68;;
55063;SDS011;40963;52.168;21.296;2022-08-21T01:52:06;6.95;;;5.30;;
55063;SDS011;40963;52.168;21.296;2022-08-21T01:54:31;10.50;;;5.75;;
55063;SDS011;40963;52.168;21.296;2022-08-21T01:56:57;8.90;;;5.47;;
55063;SDS011;40963;52.168;21.296;2022-08-21T01:59:24;14.32;;;5.78;;
55063;SDS011;40963;52.168;21.296;2022-08-21T02:01:50;6.70;;;5.55;;
55063;SDS011;40963;52.168;21.296;2022-08-21T02:04:17;15.57;;;5.82;;
55063;SDS011;40963;52.168;21.296;2022-08-21T02:06:43;7.10;;;5.85;;
55063;SDS011;40963;52.168;21.296;2022-08-21T02:09:10;9.13;;;6.00;;
55063;SDS011;40963;52.168;21.296;2022-08-21T02:11:37;5.85;;;5.20;;
55063;SDS011;40963;52.168;21.296;2022-08-21T02:14:15;9.18;;;5.55;;
55063;SDS011;40963;52.168;21.296;2022-08-21T02:16:41;11.95;;;5.60;;
55063;SDS011;40963;52.168;21.296;2022-08-21T02:19:08;13.52;;;6.05;;
55063;SDS011;40963;52.168;21.296;2022-08-21T02:21:34;6.97;;;5.40;;
55063;SDS011;40963;52.168;21.296;2022-08-21T02:24:00;7.60;;;5.60;;
55063;SDS011;40963;52.168;21.296;2022-08-21T02:26:26;7.57;;;5.28;;
55063;SDS011;40963;52.168;21.296;2022-08-21T02:28:54;11.48;;;5.30;;
55063;SDS011;40963;52.168;21.296;2022-08-21T02:31:20;6.80;;;5.05;;
55063;SDS011;40963;52.168;21.296;2022-08-21T02:33:49;9.88;;;5.75;;
55063;SDS011;40963;52.168;21.296;2022-08-21T02:36:17;7.60;;;5.88;;
55063;SDS011;40963;52.168;21.296;2022-08-21T02:38:43;12.52;;;5.72;;
55063;SDS011;40963;52.168;21.296;2022-08-21T02:41:15;10.35;;;5.55;;
55063;SDS011;40963;52.168;21.296;2022-08-21T02:43:53;8.52;;;6.28;;
55063;SDS011;40963;52.168;21.296;2022-08-21T02:46:19;9.40;;;5.68;;
55063;SDS011;40963;52.168;21.296;2022-08-21T02:48:46;14.00;;;6.38;;
55063;SDS011;40963;52.168;21.296;2022-08-21T02:51:13;13.68;;;6.15;;
55063;SDS011;40963;52.168;21.296;2022-08-21T02:53:45;6.55;;;5.50;;
55063;SDS011;40963;52.168;21.296;2022-08-21T02:56:17;9.27;;;6.10;;
55063;SDS011;40963;52.168;21.296;2022-08-21T02:58:49;8.68;;;5.68;;
55063;SDS011;40963;52.168;21.296;2022-08-21T03:01:19;11.43;;;5.97;;
55063;SDS011;40963;52.168;21.296;2022-08-21T03:03:47;8.52;;;5.95;;
55063;SDS011;40963;52.168;21.296;2022-08-21T03:06:15;13.55;;;6.82;;
55063;SDS011;40963;52.168;21.296;2022-08-21T03:08:44;27.20;;;7.45;;
55063;SDS011;40963;52.168;21.296;2022-08-21T03:11:11;7.63;;;5.38;;
55063;SDS011;40963;52.168;21.296;2022-08-21T03:13:38;11.00;;;5.80;;
55063;SDS011;40963;52.168;21.296;2022-08-21T03:16:04;8.90;;;5.93;;
55063;SDS011;40963;52.168;21.296;2022-08-21T03:18:31;9.98;;;5.70;;
55063;SDS011;40963;52.168;21.296;2022-08-21T03:20:57;8.25;;;5.97;;
55063;SDS011;40963;52.168;21.296;2022-08-21T03:23:22;12.30;;;6.00;;
55063;SDS011;40963;52.168;21.296;2022-08-21T03:25:48;6.47;;;5.35;;
55063;SDS011;40963;52.168;21.296;2022-08-21T03:28:17;7.70;;;6.00;;
55063;SDS011;40963;52.168;21.296;2022-08-21T03:30:47;13.52;;;5.60;;
55063;SDS011;40963;52.168;21.296;2022-08-21T03:33:17;6.35;;;5.75;;
55063;SDS011;40963;52.168;21.296;2022-08-21T03:35:45;7.53;;;6.00;;
55063;SDS011;40963;52.168;21.296;2022-08-21T03:38:19;16.77;;;6.88;;
55063;SDS011;40963;52.168;21.296;2022-08-21T03:40:45;11.25;;;6.40;;
55063;SDS011;40963;52.168;21.296;2022-08-21T03:43:14;14.32;;;7.78;;
55063;SDS011;40963;52.168;21.296;2022-08-21T03:45:39;9.98;;;6.82;;
55063;SDS011;40963;52.168;21.296;2022-08-21T03:48:06;13.20;;;7.68;;
55063;SDS011;40963;52.168;21.296;2022-08-21T03:50:42;13.13;;;7.00;;
55063;SDS011;40963;52.168;21.296;2022-08-21T03:53:18;9.07;;;7.07;;
55063;SDS011;40963;52.168;21.296;2022-08-21T03:55:46;11.18;;;7.55;;
55063;SDS011;40963;52.168;21.296;2022-08-21T03:58:18;10.48;;;7.88;;
55063;SDS011;40963;52.168;21.296;2022-08-21T04:00:51;10.60;;;6.90;;
55063;SDS011;40963;52.168;21.296;2022-08-21T04:03:19;11.43;;;6.90;;
55063;SDS011;40963;52.168;21.296;2022-08-21T04:05:45;10.48;;;6.72;;
55063;SDS011;40963;52.168;21.296;2022-08-21T04:08:11;7.05;;;6.32;;
55063;SDS011;40963;52.168;21.296;2022-08-21T04:10:39;11.80;;;6.80;;
55063;SDS011;40963;52.168;21.296;2022-08-21T04:13:08;10.70;;;7.13;;
55063;SDS011;40963;52.168;21.296;2022-08-21T04:15:37;12.77;;;6.72;;
55063;SDS011;40963;52.168;21.296;2022-08-21T04:18:05;21.98;;;6.80;;
55063;SDS011;40963;52.168;21.296;2022-08-21T04:20:34;16.42;;;6.57;;
55063;SDS011;40963;52.168;21.296;2022-08-21T04:23:02;8.05;;;5.38;;
55063;SDS011;40963;52.168;21.296;2022-08-21T04:25:33;19.63;;;6.07;;
55063;SDS011;40963;52.168;21.296;2022-08-21T04:28:01;12.40;;;6.50;;
55063;SDS011;40963;52.168;21.296;2022-08-21T04:30:27;8.65;;;5.35;;
55063;SDS011;40963;52.168;21.296;2022-08-21T04:32:53;10.35;;;5.60;;
55063;SDS011;40963;52.168;21.296;2022-08-21T04:35:20;10.13;;;5.32;;
55063;SDS011;40963;52.168;21.296;2022-08-21T04:37:49;11.65;;;6.10;;
55063;SDS011;40963;52.168;21.296;2022-08-21T04:40:18;10.30;;;5.80;;
55063;SDS011;40963;52.168;21.296;2022-08-21T04:42:50;10.32;;;5.75;;
55063;SDS011;40963;52.168;21.296;2022-08-21T04:45:21;15.10;;;5.50;;
55063;SDS011;40963;52.168;21.296;2022-08-21T04:47:52;11.15;;;5.80;;
55063;SDS011;40963;52.168;21.296;2022-08-21T04:50:26;9.18;;;5.25;;
55063;SDS011;40963;52.168;21.296;2022-08-21T04:52:55;6.63;;;5.13;;
55063;SDS011;40963;52.168;21.296;2022-08-21T04:55:27;8.75;;;5.60;;
55063;SDS011;40963;52.168;21.296;2022-08-21T04:57:55;10.85;;;5.97;;
55063;SDS011;40963;52.168;21.296;2022-08-21T05:00:22;6.13;;;5.22;;
55063;SDS011;40963;52.168;21.296;2022-08-21T05:02:51;8.02;;;5.07;;
55063;SDS011;40963;52.168;21.296;2022-08-21T05:05:24;11.35;;;5.57;;
55063;SDS011;40963;52.168;21.296;2022-08-21T05:07:53;12.20;;;5.00;;
55063;SDS011;40963;52.168;21.296;2022-08-21T05:10:21;8.13;;;5.15;;
55063;SDS011;40963;52.168;21.296;2022-08-21T05:12:50;9.02;;;5.45;;
55063;SDS011;40963;52.168;21.296;2022-08-21T05:15:22;7.00;;;5.32;;
55063;SDS011;40963;52.168;21.296;2022-08-21T05:17:48;8.30;;;5.38;;
55063;SDS011;40963;52.168;21.296;2022-08-21T05:20:16;9.48;;;5.28;;
55063;SDS011;40963;52.168;21.296;2022-08-21T05:22:51;8.93;;;5.15;;
55063;SDS011;40963;52.168;21.296;2022-08-21T05:25:20;6.18;;;4.95;;
55063;SDS011;40963;52.168;21.296;2022-08-21T05:27:45;7.55;;;4.95;;
55063;SDS011;40963;52.168;21.296;2022-08-21T05:30:11;7.80;;;5.18;;
55063;SDS011;40963;52.168;21.296;2022-08-21T05:32:37;9.80;;;5.13;;
55063;SDS011;40963;52.168;21.296;2022-08-21T05:35:06;5.03;;;4.55;;
55063;SDS011;40963;52.168;21.296;2022-08-21T05:37:32;9.02;;;5.00;;
55063;SDS011;40963;52.168;21.296;2022-08-21T05:39:59;7.10;;;5.20;;
55063;SDS011;40963;52.168;21.296;2022-08-21T05:42:26;6.28;;;4.70;;
55063;SDS011;40963;52.168;21.296;2022-08-21T05:44:53;8.10;;;5.72;;
55063;SDS011;40963;52.168;21.296;2022-08-21T05:47:18;8.13;;;5.22;;
55063;SDS011;40963;52.168;21.296;2022-08-21T05:49:44;8.40;;;5.28;;
55063;SDS011;40963;52.168;21.296;2022-08-21T05:52:10;8.07;;;4.82;;
55063;SDS011;40963;52.168;21.296;2022-08-21T05:54:36;5.97;;;4.47;;
55063;SDS011;40963;52.168;21.296;2022-08-21T05:57:02;8.45;;;5.07;;
55063;SDS011;40963;52.168;21.296;2022-08-21T05:59:28;7.35;;;5.22;;
55063;SDS011;40963;52.168;21.296;2022-08-21T06:01:54;6.93;;;4.53;;
55063;SDS011;40963;52.168;21.296;2022-08-21T06:04:20;12.80;;;5.20;;
55063;SDS011;40963;52.168;21.296;2022-08-21T06:06:45;6.50;;;5.10;;
55063;SDS011;40963;52.168;21.296;2022-08-21T06:09:12;6.45;;;4.82;;
55063;SDS011;40963;52.168;21.296;2022-08-21T06:11:38;6.03;;;5.35;;
55063;SDS011;40963;52.168;21.296;2022-08-21T06:14:04;14.02;;;5.10;;
55063;SDS011;40963;52.168;21.296;2022-08-21T06:16:31;5.72;;;4.80;;
55063;SDS011;40963;52.168;21.296;2022-08-21T06:18:57;7.65;;;4.80;;
55063;SDS011;40963;52.168;21.296;2022-08-21T06:21:22;10.07;;;4.85;;
55063;SDS011;40963;52.168;21.296;2022-08-21T06:23:48;7.63;;;4.85;;
55063;SDS011;40963;52.168;21.296;2022-08-21T06:26:14;8.00;;;4.40;;
55063;SDS011;40963;52.168;21.296;2022-08-21T06:28:40;6.25;;;4.60;;
55063;SDS011;40963;52.168;21.296;2022-08-21T06:31:14;7.70;;;5.00;;
55063;SDS011;40963;52.168;21.296;2022-08-21T06:33:45;7.25;;;5.03;;
55063;SDS011;40963;52.168;21.296;2022-08-21T06:36:11;7.28;;;5.50;;
55063;SDS011;40963;52.168;21.296;2022-08-21T06:38:38;6.82;;;4.93;;
55063;SDS011;40963;52.168;21.296;2022-08-21T06:41:04;5.45;;;4.85;;
55063;SDS011;40963;52.168;21.296;2022-08-21T06:43:30;6.63;;;5.13;;
55063;SDS011;40963;52.168;21.296;2022-08-21T06:45:56;9.52;;;4.70;;
55063;SDS011;40963;52.168;21.296;2022-08-21T06:48:22;5.60;;;4.65;;
55063;SDS011;40963;52.168;21.296;2022-08-21T06:50:48;6.82;;;4.85;;
55063;SDS011;40963;52.168;21.296;2022-08-21T06:53:14;5.22;;;4.72;;
55063;SDS011;40963;52.168;21.296;2022-08-21T06:55:42;5.30;;;4.78;;
55063;SDS011;40963;52.168;21.296;2022-08-21T06:58:09;4.88;;;4.40;;
55063;SDS011;40963;52.168;21.296;2022-08-21T07:00:38;9.43;;;5.10;;
55063;SDS011;40963;52.168;21.296;2022-08-21T07:03:05;8.50;;;4.55;;
55063;SDS011;40963;52.168;21.296;2022-08-21T07:05:30;9.52;;;4.80;;
55063;SDS011;40963;52.168;21.296;2022-08-21T07:07:57;6.57;;;4.72;;
55063;SDS011;40963;52.168;21.296;2022-08-21T07:10:23;5.35;;;4.85;;
55063;SDS011;40963;52.168;21.296;2022-08-21T07:12:53;10.50;;;4.90;;
55063;SDS011;40963;52.168;21.296;2022-08-21T07:15:19;11.48;;;5.10;;
55063;SDS011;40963;52.168;21.296;2022-08-21T07:17:45;6.00;;;4.82;;
55063;SDS011;40963;52.168;21.296;2022-08-21T07:20:11;7.32;;;4.88;;
55063;SDS011;40963;52.168;21.296;2022-08-21T07:22:37;13.80;;;4.78;;
55063;SDS011;40963;52.168;21.296;2022-08-21T07:25:04;5.72;;;5.07;;
55063;SDS011;40963;52.168;21.296;2022-08-21T07:27:31;7.72;;;4.90;;
55063;SDS011;40963;52.168;21.296;2022-08-21T07:29:57;8.88;;;5.07;;
55063;SDS011;40963;52.168;21.296;2022-08-21T07:32:23;8.07;;;4.43;;
55063;SDS011;40963;52.168;21.296;2022-08-21T07:34:48;6.00;;;5.13;;
55063;SDS011;40963;52.168;21.296;2022-08-21T07:37:14;7.63;;;4.50;;
55063;SDS011;40963;52.168;21.296;2022-08-21T07:39:40;6.72;;;5.22;;
55063;SDS011;40963;52.168;21.296;2022-08-21T07:42:06;8.50;;;4.63;;
55063;SDS011;40963;52.168;21.296;2022-08-21T07:44:31;7.60;;;5.10;;
55063;SDS011;40963;52.168;21.296;2022-08-21T07:46:59;6.32;;;5.10;;
55063;SDS011;40963;52.168;21.296;2022-08-21T07:49:26;8.13;;;4.43;;
55063;SDS011;40963;52.168;21.296;2022-08-21T07:51:52;7.97;;;4.85;;
55063;SDS011;40963;52.168;21.296;2022-08-21T07:54:18;6.80;;;4.68;;
55063;SDS011;40963;52.168;21.296;2022-08-21T07:56:43;7.80;;;5.00;;
55063;SDS011;40963;52.168;21.296;2022-08-21T07:59:10;7.18;;;5.00;;
55063;SDS011;40963;52.168;21.296;2022-08-21T08:01:36;8.63;;;5.00;;
55063;SDS011;40963;52.168;21.296;2022-08-21T08:04:02;9.32;;;4.82;;
55063;SDS011;40963;52.168;21.296;2022-08-21T08:06:28;5.53;;;4.88;;
55063;SDS011;40963;52.168;21.296;2022-08-21T08:08:55;5.03;;;4.53;;
55063;SDS011;40963;52.168;21.296;2022-08-21T08:11:21;6.00;;;4.30;;
55063;SDS011;40963;52.168;21.296;2022-08-21T08:13:48;7.03;;;4.90;;
55063;SDS011;40963;52.168;21.296;2022-08-21T08:16:15;5.45;;;4.40;;
55063;SDS011;40963;52.168;21.296;2022-08-21T08:18:41;8.32;;;4.78;;
55063;SDS011;40963;52.168;21.296;2022-08-21T08:21:08;6.90;;;4.30;;
55063;SDS011;40963;52.168;21.296;2022-08-21T08:23:35;5.15;;;4.38;;
55063;SDS011;40963;52.168;21.296;2022-08-21T08:26:01;5.60;;;4.55;;
55063;SDS011;40963;52.168;21.296;2022-08-21T08:28:30;4.63;;;4.20;;
55063;SDS011;40963;52.168;21.296;2022-08-21T08:30:56;5.95;;;3.75;;
55063;SDS011;40963;52.168;21.296;2022-08-21T08:33:22;5.40;;;3.83;;
55063;SDS011;40963;52.168;21.296;2022-08-21T08:35:49;5.95;;;4.22;;
55063;SDS011;40963;52.168;21.296;2022-08-21T08:38:16;6.25;;;4.28;;
55063;SDS011;40963;52.168;21.296;2022-08-21T08:43:30;8.23;;;3.42;;
55063;SDS011;40963;52.168;21.296;2022-08-21T08:45:58;7.97;;;3.60;;
55063;SDS011;40963;52.168;21.296;2022-08-21T08:50:59;3.13;;;2.83;;
55063;SDS011;40963;52.168;21.296;2022-08-21T08:53:33;8.85;;;3.10;;
55063;SDS011;40963;52.168;21.296;2022-08-21T08:56:07;5.53;;;3.53;;
55063;SDS011;40963;52.168;21.296;2022-08-21T08:58:34;4.95;;;3.42;;
55063;SDS011;40963;52.168;21.296;2022-08-21T09:01:05;3.83;;;3.33;;
55063;SDS011;40963;52.168;21.296;2022-08-21T09:03:52;8.13;;;3.72;;
55063;SDS011;40963;52.168;21.296;2022-08-21T09:09:02;7.55;;;3.10;;
55063;SDS011;40963;52.168;21.296;2022-08-21T09:11:45;4.32;;;3.58;;
55063;SDS011;40963;52.168;21.296;2022-08-21T09:14:19;8.02;;;3.47;;
55063;SDS011;40963;52.168;21.296;2022-08-21T09:17:08;4.40;;;3.38;;
55063;SDS011;40963;52.168;21.296;2022-08-21T09:25:50;4.30;;;3.45;;
55063;SDS011;40963;52.168;21.296;2022-08-21T09:28:23;3.92;;;3.20;;
55063;SDS011;40963;52.168;21.296;2022-08-21T09:30:49;4.60;;;2.88;;
55063;SDS011;40963;52.168;21.296;2022-08-21T09:33:19;6.13;;;3.47;;
55063;SDS011;40963;52.168;21.296;2022-08-21T09:35:52;6.18;;;3.20;;
55063;SDS011;40963;52.168;21.296;2022-08-21T09:38:24;4.43;;;2.90;;
55063;SDS011;40963;52.168;21.296;2022-08-21T09:40:55;4.75;;;3.10;;
55063;SDS011;40963;52.168;21.296;2022-08-21T09:43:29;4.68;;;2.70;;
55063;SDS011;40963;52.168;21.296;2022-08-21T09:46:19;3.20;;;2.90;;
55063;SDS011;40963;52.168;21.296;2022-08-21T09:48:50;3.08;;;2.88;;
55063;SDS011;40963;52.168;21.296;2022-08-21T09:51:25;3.58;;;2.80;;
55063;SDS011;40963;52.168;21.296;2022-08-21T09:56:35;4.25;;;2.83;;
55063;SDS011;40963;52.168;21.296;2022-08-21T09:59:35;4.50;;;2.65;;
55063;SDS011;40963;52.168;21.296;2022-08-21T10:02:07;5.75;;;2.67;;
55063;SDS011;40963;52.168;21.296;2022-08-21T10:05:17;3.47;;;2.58;;
55063;SDS011;40963;52.168;21.296;2022-08-21T10:07:44;3.38;;;2.58;;
55063;SDS011;40963;52.168;21.296;2022-08-21T10:12:55;3.05;;;2.75;;
55063;SDS011;40963;52.168;21.296;2022-08-21T10:20:44;2.60;;;2.40;;
55063;SDS011;40963;52.168;21.296;2022-08-21T10:29:02;7.90;;;2.72;;
55063;SDS011;40963;52.168;21.296;2022-08-21T10:40:34;3.30;;;2.58;;
55063;SDS011;40963;52.168;21.296;2022-08-21T10:51:26;3.38;;;3.10;;
55063;SDS011;40963;52.168;21.296;2022-08-21T10:54:05;3.65;;;3.30;;
55063;SDS011;40963;52.168;21.296;2022-08-21T10:57:11;3.25;;;2.95;;
55063;SDS011;40963;52.168;21.296;2022-08-21T10:59:47;3.22;;;3.03;;
55063;SDS011;40963;52.168;21.296;2022-08-21T11:02:22;5.28;;;3.22;;
55063;SDS011;40963;52.168;21.296;2022-08-21T11:05:16;4.25;;;3.00;;
55063;SDS011;40963;52.168;21.296;2022-08-21T11:08:06;9.35;;;2.72;;
55063;SDS011;40963;52.168;21.296;2022-08-21T11:10:47;3.15;;;2.85;;
55063;SDS011;40963;52.168;21.296;2022-08-21T11:13:26;8.02;;;3.38;;
55063;SDS011;40963;52.168;21.296;2022-08-21T11:18:55;3.78;;;2.75;;
55063;SDS011;40963;52.168;21.296;2022-08-21T11:27:03;4.53;;;2.70;;
55063;SDS011;40963;52.168;21.296;2022-08-21T11:29:38;2.80;;;2.60;;
55063;SDS011;40963;52.168;21.296;2022-08-21T11:32:10;4.28;;;2.92;;
55063;SDS011;40963;52.168;21.296;2022-08-21T11:50:48;3.35;;;3.05;;
55063;SDS011;40963;52.168;21.296;2022-08-21T11:53:17;6.07;;;3.30;;
55063;SDS011;40963;52.168;21.296;2022-08-21T11:55:48;3.78;;;3.25;;
55063;SDS011;40963;52.168;21.296;2022-08-21T11:58:28;5.35;;;3.08;;
55063;SDS011;40963;52.168;21.296;2022-08-21T12:01:11;4.55;;;3.20;;
55063;SDS011;40963;52.168;21.296;2022-08-21T12:04:01;3.30;;;3.10;;
55063;SDS011;40963;52.168;21.296;2022-08-21T12:07:13;4.93;;;3.20;;
55063;SDS011;40963;52.168;21.296;2022-08-21T12:09:50;5.00;;;3.28;;
55063;SDS011;40963;52.168;21.296;2022-08-21T12:12:25;3.42;;;3.20;;
55063;SDS011;40963;52.168;21.296;2022-08-21T12:20:23;5.70;;;3.47;;
55063;SDS011;40963;52.168;21.296;2022-08-21T12:23:43;3.92;;;3.55;;
55063;SDS011;40963;52.168;21.296;2022-08-21T12:26:22;3.15;;;2.85;;
55063;SDS011;40963;52.168;21.296;2022-08-21T12:29:02;3.38;;;3.17;;
55063;SDS011;40963;52.168;21.296;2022-08-21T12:31:47;5.25;;;3.90;;
55063;SDS011;40963;52.168;21.296;2022-08-21T12:34:19;4.20;;;3.50;;
55063;SDS011;40963;52.168;21.296;2022-08-21T12:36:55;3.65;;;3.00;;
55063;SDS011;40963;52.168;21.296;2022-08-21T12:39:25;5.10;;;3.35;;
55063;SDS011;40963;52.168;21.296;2022-08-21T12:41:55;3.38;;;3.08;;
55063;SDS011;40963;52.168;21.296;2022-08-21T12:44:45;3.50;;;3.20;;
55063;SDS011;40963;52.168;21.296;2022-08-21T12:53:04;3.83;;;2.83;;
55063;SDS011;40963;52.168;21.296;2022-08-21T12:55:35;3.00;;;2.78;;
55063;SDS011;40963;52.168;21.296;2022-08-21T12:58:06;5.43;;;2.90;;
55063;SDS011;40963;52.168;21.296;2022-08-21T13:00:44;2.97;;;2.78;;
55063;SDS011;40963;52.168;21.296;2022-08-21T13:03:15;3.38;;;2.88;;
55063;SDS011;40963;52.168;21.296;2022-08-21T13:05:41;2.92;;;2.72;;
55063;SDS011;40963;52.168;21.296;2022-08-21T13:08:09;4.85;;;3.22;;
55063;SDS011;40963;52.168;21.296;2022-08-21T13:10:37;5.25;;;2.83;;
55063;SDS011;40963;52.168;21.296;2022-08-21T13:13:07;2.97;;;2.67;;
55063;SDS011;40963;52.168;21.296;2022-08-21T13:15:38;6.65;;;2.70;;
55063;SDS011;40963;52.168;21.296;2022-08-21T13:18:05;3.58;;;2.80;;
55063;SDS011;40963;52.168;21.296;2022-08-21T13:20:36;3.35;;;2.67;;
55063;SDS011;40963;52.168;21.296;2022-08-21T13:23:06;5.28;;;2.80;;
55063;SDS011;40963;52.168;21.296;2022-08-21T13:25:44;4.72;;;2.72;;
55063;SDS011;40963;52.168;21.296;2022-08-21T13:28:11;3.60;;;3.00;;
55063;SDS011;40963;52.168;21.296;2022-08-21T13:30:44;4.97;;;3.10;;
55063;SDS011;40963;52.168;21.296;2022-08-21T13:33:13;4.47;;;3.10;;
55063;SDS011;40963;52.168;21.296;2022-08-21T13:38:15;7.72;;;3.58;;
55063;SDS011;40963;52.168;21.296;2022-08-21T13:40:48;3.17;;;2.90;;
55063;SDS011;40963;52.168;21.296;2022-08-21T13:43:20;5.82;;;2.88;;
55063;SDS011;40963;52.168;21.296;2022-08-21T13:45:52;5.07;;;3.15;;
55063;SDS011;40963;52.168;21.296;2022-08-21T13:48:19;3.35;;;2.53;;
55063;SDS011;40963;52.168;21.296;2022-08-21T13:50:46;3.00;;;2.65;;
55063;SDS011;40963;52.168;21.296;2022-08-21T13:56:05;4.13;;;2.80;;
55063;SDS011;40963;52.168;21.296;2022-08-21T13:58:33;4.40;;;2.80;;
55063;SDS011;40963;52.168;21.296;2022-08-21T14:01:15;3.22;;;2.70;;
55063;SDS011;40963;52.168;21.296;2022-08-21T14:03:48;4.03;;;2.70;;
55063;SDS011;40963;52.168;21.296;2022-08-21T14:06:18;4.28;;;2.90;;
55063;SDS011;40963;52.168;21.296;2022-08-21T14:08:49;3.20;;;2.88;;
55063;SDS011;40963;52.168;21.296;2022-08-21T14:11:18;6.95;;;3.50;;
55063;SDS011;40963;52.168;21.296;2022-08-21T14:13:46;10.95;;;4.78;;
55063;SDS011;40963;52.168;21.296;2022-08-21T14:16:23;3.00;;;2.75;;
55063;SDS011;40963;52.168;21.296;2022-08-21T14:21:44;6.15;;;2.90;;
55063;SDS011;40963;52.168;21.296;2022-08-21T14:26:51;4.43;;;3.25;;
55063;SDS011;40963;52.168;21.296;2022-08-21T14:29:21;3.03;;;2.75;;
55063;SDS011;40963;52.168;21.296;2022-08-21T14:31:58;3.15;;;2.85;;
55063;SDS011;40963;52.168;21.296;2022-08-21T14:34:32;3.67;;;3.20;;
55063;SDS011;40963;52.168;21.296;2022-08-21T14:36:58;8.10;;;2.80;;
55063;SDS011;40963;52.168;21.296;2022-08-21T14:39:24;5.00;;;2.60;;
55063;SDS011;40963;52.168;21.296;2022-08-21T14:41:49;3.08;;;2.80;;
55063;SDS011;40963;52.168;21.296;2022-08-21T14:44:17;3.30;;;2.97;;
55063;SDS011;40963;52.168;21.296;2022-08-21T14:46:44;3.35;;;3.00;;
55063;SDS011;40963;52.168;21.296;2022-08-21T14:49:10;3.80;;;3.22;;
55063;SDS011;40963;52.168;21.296;2022-08-21T14:51:36;2.92;;;2.70;;
55063;SDS011;40963;52.168;21.296;2022-08-21T14:54:05;3.22;;;2.58;;
55063;SDS011;40963;52.168;21.296;2022-08-21T14:56:32;4.70;;;3.13;;
55063;SDS011;40963;52.168;21.296;2022-08-21T14:59:00;6.90;;;2.55;;
55063;SDS011;40963;52.168;21.296;2022-08-21T15:01:30;7.43;;;2.90;;
55063;SDS011;40963;52.168;21.296;2022-08-21T15:03:59;8.82;;;2.88;;
55063;SDS011;40963;52.168;21.296;2022-08-21T15:06:25;3.03;;;2.80;;
55063;SDS011;40963;52.168;21.296;2022-08-21T15:08:50;2.90;;;2.70;;
55063;SDS011;40963;52.168;21.296;2022-08-21T15:11:17;6.13;;;3.15;;
55063;SDS011;40963;52.168;21.296;2022-08-21T15:13:45;3.92;;;3.38;;
55063;SDS011;40963;52.168;21.296;2022-08-21T15:16:11;2.97;;;2.78;;
55063;SDS011;40963;52.168;21.296;2022-08-21T15:18:38;6.65;;;2.78;;
55063;SDS011;40963;52.168;21.296;2022-08-21T15:21:04;5.47;;;3.30;;
55063;SDS011;40963;52.168;21.296;2022-08-21T15:23:30;5.50;;;3.22;;
55063;SDS011;40963;52.168;21.296;2022-08-21T15:25:55;5.35;;;3.72;;
55063;SDS011;40963;52.168;21.296;2022-08-21T15:28:22;3.97;;;3.63;;
55063;SDS011;40963;52.168;21.296;2022-08-21T15:30:49;4.25;;;3.85;;
55063;SDS011;40963;52.168;21.296;2022-08-21T15:33:15;6.97;;;3.97;;
55063;SDS011;40963;52.168;21.296;2022-08-21T15:35:41;3.92;;;3.60;;
55063;SDS011;40963;52.168;21.296;2022-08-21T15:38:07;5.05;;;3.50;;
55063;SDS011;40963;52.168;21.296;2022-08-21T15:40:33;3.53;;;3.22;;
55063;SDS011;40963;52.168;21.296;2022-08-21T15:43:01;7.10;;;3.80;;
55063;SDS011;40963;52.168;21.296;2022-08-21T15:45:28;3.70;;;3.40;;
55063;SDS011;40963;52.168;21.296;2022-08-21T15:47:54;4.15;;;3.58;;
55063;SDS011;40963;52.168;21.296;2022-08-21T15:50:21;5.55;;;3.78;;
55063;SDS011;40963;52.168;21.296;2022-08-21T15:52:48;4.88;;;3.38;;
55063;SDS011;40963;52.168;21.296;2022-08-21T15:55:14;4.63;;;3.28;;
55063;SDS011;40963;52.168;21.296;2022-08-21T15:57:44;9.77;;;3.63;;
55063;SDS011;40963;52.168;21.296;2022-08-21T16:00:23;6.43;;;3.47;;
55063;SDS011;40963;52.168;21.296;2022-08-21T16:02:50;4.00;;;3.42;;
55063;SDS011;40963;52.168;21.296;2022-08-21T16:05:18;10.35;;;3.40;;
55063;SDS011;40963;52.168;21.296;2022-08-21T16:07:47;5.78;;;3.58;;
55063;SDS011;40963;52.168;21.296;2022-08-21T16:10:14;6.82;;;3.50;;
55063;SDS011;40963;52.168;21.296;2022-08-21T16:12:43;5.65;;;3.17;;
55063;SDS011;40963;52.168;21.296;2022-08-21T16:15:13;4.25;;;3.85;;
55063;SDS011;40963;52.168;21.296;2022-08-21T16:17:41;7.15;;;3.78;;
55063;SDS011;40963;52.168;21.296;2022-08-21T16:20:12;4.88;;;3.63;;
55063;SDS011;40963;52.168;21.296;2022-08-21T16:22:40;3.50;;;3.20;;